EFKE

Kemi-Tornio Airport

Kemi / Tornio, Finland
METAR EFKE 252220Z 11001KT CAVOK 06/05 Q1023
Observed Flight Rules
May-25 @ 22:20 UTC (16 minutes ago) Visual Flight Rules
Wind Visibility Clouds
110° at 1 knots 10,000+ meters
  • Clear skies
Temperatures Readings
Current 6°C / 43°F
Dewpoint 5°C / 41°F
Humidity 93%
Altimeter 30.21" Hg
Pressure 1023 hPa
Elevation 15
METAR EFKE 252220Z 11001KT CAVOK 06/05 Q1023
Observed Flight Rules
May-25 @ 22:20 UTC
(16 minutes ago)
VFR
Wind Visibility
110° at 1 knots 10,000+ meters
Clouds
  • Clear skies
Temperature Dewpoint
6°C / 43°F 5°C / 41°F
Humidity Altimeter Pressure
93% 30.21" Hg 1023 hPa